Time;durP1;ratioP1;P1;durP2;ratioP2;P2;SDS_P1;SDS_P2;PMS_P1;PMS_P2;Temp;Humidity;BMP_temperature;BMP_pressure;BME280_temperature;BME280_humidity;BME280_pressure;Samples;Min_cycle;Max_cycle;Signal;HPM_P1;HPM_P2
2024/03/10 00:01:23;;;;;;;16.20;13.77;;;8.00;99.90;;;;;;5089640;28;20318;-71
2024/03/10 00:03:50;;;;;;;17.10;14.00;;;8.00;99.90;;;;;;5090136;28;20202;-72
2024/03/10 00:06:17;;;;;;;18.03;13.60;;;8.00;99.90;;;;;;5089753;28;20576;-72
2024/03/10 00:08:46;;;;;;;15.77;13.67;;;8.00;99.90;;;;;;5089711;28;20666;-72
2024/03/10 00:11:14;;;;;;;17.27;14.00;;;8.00;99.90;;;;;;5089820;28;20232;-72
2024/03/10 00:13:41;;;;;;;16.80;13.23;;;7.90;99.90;;;;;;5088938;28;20270;-72
2024/03/10 00:16:09;;;;;;;18.30;13.17;;;7.90;99.90;;;;;;5087629;28;20644;-72
2024/03/10 00:18:36;;;;;;;16.93;13.47;;;7.80;99.90;;;;;;5089472;28;20214;-72
2024/03/10 00:21:03;;;;;;;18.53;13.97;;;7.70;99.90;;;;;;5089179;28;20305;-72
2024/03/10 00:23:30;;;;;;;16.63;13.70;;;7.70;99.90;;;;;;5089523;28;20836;-71
2024/03/10 00:25:59;;;;;;;18.10;14.37;;;7.80;99.90;;;;;;5088982;28;20302;-72
2024/03/10 00:28:26;;;;;;;16.70;14.00;;;7.80;99.90;;;;;;5088707;28;20675;-71
2024/03/10 00:30:54;;;;;;;16.30;13.83;;;7.80;99.90;;;;;;5077697;28;20223;-70
2024/03/10 00:33:21;;;;;;;16.87;13.23;;;7.80;99.90;;;;;;5070334;28;20201;-70
2024/03/10 00:35:48;;;;;;;16.93;13.83;;;7.70;99.90;;;;;;5069185;28;20299;-70
2024/03/10 00:38:15;;;;;;;16.60;12.97;;;7.70;99.90;;;;;;5068919;28;20707;-70
2024/03/10 00:40:42;;;;;;;16.10;13.50;;;7.70;99.90;;;;;;5072924;28;20207;-71
2024/03/10 00:43:10;;;;;;;15.67;12.80;;;7.80;99.90;;;;;;5088909;28;20716;-70
2024/03/10 00:45:37;;;;;;;15.10;13.33;;;7.70;99.90;;;;;;5089094;28;20290;-70
2024/03/10 00:48:04;;;;;;;18.53;13.57;;;7.70;99.90;;;;;;5089332;28;20301;-70
2024/03/10 00:50:31;;;;;;;16.27;13.60;;;7.70;99.90;;;;;;5088762;28;20253;-72
2024/03/10 00:52:58;;;;;;;18.10;14.30;;;7.60;99.90;;;;;;5089246;28;20374;-71
2024/03/10 00:55:25;;;;;;;16.43;13.63;;;7.70;99.90;;;;;;5088664;28;20226;-72
2024/03/10 00:57:52;;;;;;;18.57;14.17;;;7.60;99.90;;;;;;5088701;28;20291;-71
2024/03/10 01:00:20;;;;;;;16.93;13.57;;;7.60;99.90;;;;;;5088856;28;20651;-71
2024/03/10 01:02:48;;;;;;;16.70;13.63;;;7.60;99.90;;;;;;5088179;28;20592;-71
2024/03/10 01:05:15;;;;;;;17.50;14.93;;;7.60;99.90;;;;;;5088517;28;20226;-71
2024/03/10 01:07:42;;;;;;;18.20;14.40;;;7.60;99.90;;;;;;5088892;28;20253;-72
2024/03/10 01:10:11;;;;;;;17.33;14.00;;;7.60;99.90;;;;;;5085502;28;20238;-71
2024/03/10 01:12:38;;;;;;;16.97;13.83;;;7.60;99.90;;;;;;5068338;28;20235;-70
2024/03/10 01:15:07;;;;;;;16.77;13.23;;;7.60;99.90;;;;;;5083505;28;20327;-70
2024/03/10 01:17:35;;;;;;;16.07;13.43;;;7.50;99.90;;;;;;5088931;28;20205;-70
2024/03/10 01:20:03;;;;;;;16.43;13.67;;;7.60;99.90;;;;;;5088372;28;20325;-70
2024/03/10 01:22:31;;;;;;;17.63;13.17;;;7.60;99.90;;;;;;5088942;28;20211;-70
2024/03/10 01:24:58;;;;;;;18.77;13.90;;;7.50;99.90;;;;;;5087849;28;20665;-70
2024/03/10 01:27:25;;;;;;;16.43;13.77;;;7.50;99.90;;;;;;5088609;28;20293;-70
2024/03/10 01:29:52;;;;;;;16.30;12.50;;;7.50;99.90;;;;;;5088467;28;20223;-70
2024/03/10 01:32:18;;;;;;;14.47;12.37;;;7.50;99.90;;;;;;5088479;28;21068;-73
2024/03/10 01:34:48;;;;;;;14.83;12.63;;;7.50;99.90;;;;;;5088400;28;20234;-73
2024/03/10 01:37:15;;;;;;;15.70;12.87;;;7.40;99.90;;;;;;5088571;28;20289;-73
2024/03/10 01:39:42;;;;;;;16.97;13.03;;;7.40;99.90;;;;;;5087878;28;20214;-72
2024/03/10 01:42:09;;;;;;;16.43;13.40;;;7.30;99.90;;;;;;5088512;28;20214;-73
2024/03/10 01:44:36;;;;;;;17.23;13.27;;;7.30;99.90;;;;;;5087962;28;20301;-71
2024/03/10 01:47:03;;;;;;;16.60;13.07;;;7.30;99.90;;;;;;5087692;28;20590;-72
2024/03/10 01:49:30;;;;;;;16.70;12.63;;;7.30;99.90;;;;;;5088006;28;20240;-72
2024/03/10 01:51:59;;;;;;;15.00;12.60;;;7.30;99.90;;;;;;5088268;28;20289;-72
2024/03/10 01:54:30;;;;;;;16.93;13.03;;;7.30;99.90;;;;;;5087964;28;20617;-72
2024/03/10 01:56:58;;;;;;;14.87;12.93;;;7.30;99.90;;;;;;5087975;28;20237;-72
2024/03/10 01:59:26;;;;;;;16.33;13.00;;;7.30;99.90;;;;;;5087855;28;20285;-72
2024/03/10 02:01:54;;;;;;;15.73;13.43;;;7.30;99.90;;;;;;5087887;28;20250;-71
2024/03/10 02:04:21;;;;;;;17.00;12.63;;;7.30;99.90;;;;;;5087491;28;20306;-72
2024/03/10 02:06:50;;;;;;;15.30;13.20;;;7.20;99.90;;;;;;5087057;28;20705;-72
2024/03/10 02:09:18;;;;;;;15.60;13.50;;;7.30;99.90;;;;;;5088070;28;20245;-71
2024/03/10 02:11:45;;;;;;;16.40;13.10;;;7.30;99.90;;;;;;5086763;28;20221;-71
2024/03/10 02:14:13;;;;;;;17.73;13.53;;;7.30;99.90;;;;;;5087196;28;20444;-71
2024/03/10 02:16:40;;;;;;;14.73;12.93;;;7.30;99.90;;;;;;5087978;28;20276;-72
2024/03/10 02:19:07;;;;;;;17.53;13.80;;;7.20;99.90;;;;;;5087283;28;20199;-71
2024/03/10 02:21:34;;;;;;;15.77;13.80;;;7.20;99.90;;;;;;5087480;28;20213;-71
2024/03/10 02:24:11;;;;;;;18.07;13.33;;;7.20;99.90;;;;;;5087393;28;20289;-71
2024/03/10 02:26:44;;;;;;;16.20;12.90;;;7.20;99.90;;;;;;5087656;28;20209;-71
2024/03/10 02:29:18;;;;;;;17.73;13.60;;;7.20;99.90;;;;;;5086915;28;20187;-72
2024/03/10 02:48:13;;;;;;;15.00;12.37;;;7.20;99.90;;;;;;5074122;28;20206;-72
2024/03/10 02:50:40;;;;;;;15.07;12.67;;;7.10;99.90;;;;;;5086725;28;20238;-72
2024/03/10 02:53:07;;;;;;;17.47;13.90;;;7.10;99.90;;;;;;5086964;28;20221;-72
2024/03/10 02:55:34;;;;;;;17.33;12.97;;;7.10;99.90;;;;;;5086288;28;20305;-72
2024/03/10 02:58:04;;;;;;;16.77;13.67;;;7.10;99.90;;;;;;5086398;28;20756;-72
2024/03/10 03:00:32;;;;;;;15.80;13.43;;;7.00;99.90;;;;;;5085252;28;20207;-72
2024/03/10 03:02:59;;;;;;;15.47;13.03;;;6.90;99.90;;;;;;5084241;28;20700;-72
2024/03/10 03:05:27;;;;;;;17.57;13.30;;;6.90;99.90;;;;;;5086484;28;20286;-70
2024/03/10 03:07:54;;;;;;;15.70;12.60;;;6.90;99.90;;;;;;5086268;28;20195;-72
2024/03/10 03:10:21;;;;;;;17.00;13.77;;;6.80;99.90;;;;;;5086157;28;20233;-73
2024/03/10 03:12:48;;;;;;;18.00;13.20;;;6.80;99.90;;;;;;5086045;28;20317;-73
2024/03/10 03:15:17;;;;;;;17.00;13.80;;;6.70;99.90;;;;;;5084767;28;20218;-73
2024/03/10 03:17:44;;;;;;;16.93;13.90;;;6.70;99.90;;;;;;5086997;28;20199;-73
2024/03/10 03:20:15;;;;;;;20.17;14.23;;;6.70;99.90;;;;;;5086689;28;20619;-70
2024/03/10 03:22:43;;;;;;;17.80;14.20;;;6.70;99.90;;;;;;5086787;28;20195;-70
2024/03/10 03:25:14;;;;;;;19.13;14.23;;;6.60;99.90;;;;;;5086828;28;20211;-71
2024/03/10 03:27:42;;;;;;;18.23;14.47;;;6.70;99.90;;;;;;5086860;28;20254;-70
2024/03/10 03:30:10;;;;;;;18.37;13.67;;;6.60;99.90;;;;;;5086223;28;20195;-70
2024/03/10 03:32:38;;;;;;;18.20;14.13;;;6.70;99.90;;;;;;5086287;28;20207;-70
2024/03/10 03:35:06;;;;;;;17.50;13.67;;;6.60;99.90;;;;;;5086378;28;20606;-71
2024/03/10 03:37:32;;;;;;;20.47;14.40;;;6.60;99.90;;;;;;5086623;28;20199;-70
2024/03/10 03:39:59;;;;;;;20.17;14.73;;;6.60;99.90;;;;;;5085927;28;20207;-70
2024/03/10 03:42:27;;;;;;;19.07;14.53;;;6.60;99.90;;;;;;5086053;28;20203;-70
2024/03/10 03:44:54;;;;;;;20.10;14.90;;;6.60;99.90;;;;;;5086009;28;20244;-70
2024/03/10 03:47:21;;;;;;;18.43;14.23;;;6.60;99.90;;;;;;5086945;28;20293;-71
2024/03/10 03:49:49;;;;;;;18.87;14.50;;;6.70;99.90;;;;;;5086210;28;20628;-70
2024/03/10 03:52:18;;;;;;;19.87;14.33;;;6.60;99.90;;;;;;5086293;28;20322;-71
2024/03/10 03:54:45;;;;;;;19.90;14.57;;;6.60;99.90;;;;;;5085789;28;20202;-72
2024/03/10 03:57:11;;;;;;;18.37;14.40;;;6.60;99.90;;;;;;5085179;28;20207;-72
2024/03/10 03:59:39;;;;;;;20.60;14.97;;;6.60;99.90;;;;;;5085310;28;20221;-72
2024/03/10 04:02:08;;;;;;;18.37;14.20;;;6.60;99.90;;;;;;5085484;28;20229;-73
2024/03/10 04:04:35;;;;;;;19.70;15.43;;;6.50;99.90;;;;;;5085979;28;20294;-72
2024/03/10 04:07:04;;;;;;;21.00;14.70;;;6.50;99.90;;;;;;5085846;28;20643;-72
2024/03/10 04:09:31;;;;;;;20.73;14.77;;;6.40;99.90;;;;;;5085892;28;20739;-73
2024/03/10 04:11:58;;;;;;;19.57;15.27;;;6.40;99.90;;;;;;5089098;28;20230;-73
2024/03/10 04:14:26;;;;;;;21.33;15.50;;;6.40;99.90;;;;;;5086709;28;20280;-72
2024/03/10 04:16:53;;;;;;;21.17;14.90;;;6.30;99.90;;;;;;5089785;28;20207;-72
2024/03/10 04:19:21;;;;;;;20.73;15.90;;;6.30;99.90;;;;;;5089976;28;20194;-72
2024/03/10 04:21:48;;;;;;;21.47;15.53;;;6.40;99.90;;;;;;5089855;28;20281;-72
2024/03/10 04:24:17;;;;;;;20.67;15.63;;;6.40;99.90;;;;;;5089819;28;20206;-73
2024/03/10 04:26:45;;;;;;;22.13;15.57;;;6.40;99.90;;;;;;5089481;28;20207;-73
2024/03/10 04:29:12;;;;;;;20.00;15.77;;;6.40;99.90;;;;;;5089642;28;20230;-73
2024/03/10 04:31:38;;;;;;;22.50;16.13;;;6.40;99.90;;;;;;5089726;28;20396;-72
2024/03/10 04:34:05;;;;;;;22.20;16.63;;;6.50;99.90;;;;;;5089084;28;20815;-73
2024/03/10 04:36:33;;;;;;;22.37;16.27;;;6.50;99.90;;;;;;5089589;28;20222;-71
2024/03/10 04:39:00;;;;;;;20.43;15.93;;;6.50;99.90;;;;;;5089245;28;20209;-71
2024/03/10 04:41:29;;;;;;;21.67;16.23;;;6.40;99.90;;;;;;5088945;28;20201;-71
2024/03/10 04:43:56;;;;;;;20.20;15.50;;;6.40;99.90;;;;;;5089012;28;20235;-72
2024/03/10 04:46:23;;;;;;;22.03;16.20;;;6.40;99.90;;;;;;5089408;28;20325;-71
2024/03/10 04:48:50;;;;;;;24.63;17.03;;;6.40;99.90;;;;;;5089475;28;20310;-71
2024/03/10 04:51:17;;;;;;;22.43;16.27;;;6.50;99.90;;;;;;5089285;28;20227;-71
2024/03/10 04:53:44;;;;;;;21.20;15.90;;;6.50;99.90;;;;;;5088738;28;20207;-71
2024/03/10 04:56:12;;;;;;;21.70;16.63;;;6.40;99.90;;;;;;5083010;28;20559;-71
2024/03/10 04:58:41;;;;;;;22.03;16.87;;;6.40;99.90;;;;;;5088703;28;20241;-72
2024/03/10 05:01:09;;;;;;;21.23;16.17;;;6.40;99.90;;;;;;5086408;28;20222;-74
2024/03/10 05:03:39;;;;;;;22.57;16.67;;;6.30;99.90;;;;;;5089070;28;20294;-74
2024/03/10 05:06:09;;;;;;;24.73;17.37;;;6.30;99.90;;;;;;5089030;28;20234;-74
2024/03/10 05:08:37;;;;;;;23.87;16.57;;;6.20;99.90;;;;;;5088619;28;20654;-73
2024/03/10 05:11:04;;;;;;;24.10;16.20;;;6.20;99.90;;;;;;5068398;28;20234;-74
2024/03/10 05:13:34;;;;;;;24.57;17.70;;;6.10;99.90;;;;;;5068688;28;20239;-74
2024/03/10 05:16:03;;;;;;;25.83;18.07;;;6.10;99.90;;;;;;5087602;28;20226;-74
2024/03/10 05:18:31;;;;;;;21.23;16.00;;;6.10;99.90;;;;;;5088997;28;20728;-74
2024/03/10 05:20:58;;;;;;;24.30;17.40;;;6.10;99.90;;;;;;5088705;28;20210;-73
2024/03/10 05:23:32;;;;;;;22.93;16.83;;;6.10;99.90;;;;;;5088046;28;20293;-74
2024/03/10 05:25:59;;;;;;;23.13;17.07;;;6.10;99.90;;;;;;5087891;28;20203;-72
2024/03/10 05:28:26;;;;;;;23.33;17.40;;;6.10;99.90;;;;;;5088713;28;20206;-72
2024/03/10 05:30:53;;;;;;;20.90;16.47;;;6.10;99.90;;;;;;5088419;28;20261;-72
2024/03/10 05:33:22;;;;;;;24.90;17.27;;;6.10;99.90;;;;;;5088353;28;20209;-73
2024/03/10 05:35:49;;;;;;;26.20;17.63;;;6.00;99.90;;;;;;5088271;28;20297;-73
2024/03/10 05:38:16;;;;;;;23.13;16.97;;;6.00;99.90;;;;;;5088230;28;20592;-72
2024/03/10 05:40:43;;;;;;;23.73;17.07;;;6.00;99.90;;;;;;5087761;28;20691;-72
2024/03/10 05:43:10;;;;;;;25.33;17.37;;;6.10;99.90;;;;;;5087751;28;20205;-72
2024/03/10 05:45:37;;;;;;;22.33;17.57;;;6.10;99.90;;;;;;5087831;28;20297;-72
2024/03/10 05:48:04;;;;;;;24.87;17.67;;;6.00;99.90;;;;;;5088220;28;20294;-73
2024/03/10 05:50:34;;;;;;;26.17;18.40;;;6.00;99.90;;;;;;5088289;28;20310;-72
2024/03/10 05:53:00;;;;;;;24.60;17.93;;;5.90;99.90;;;;;;5087456;28;20284;-71
2024/03/10 05:55:32;;;;;;;24.40;18.00;;;6.00;99.90;;;;;;5087689;28;20241;-72
2024/03/10 05:57:59;;;;;;;22.87;17.27;;;6.00;99.90;;;;;;5088318;28;20217;-71
2024/03/10 06:00:26;;;;;;;24.53;17.67;;;6.00;99.90;;;;;;5087887;28;20203;-71
2024/03/10 06:02:53;;;;;;;22.63;17.30;;;6.10;99.90;;;;;;5088169;28;20233;-72
2024/03/10 06:05:21;;;;;;;25.70;18.00;;;6.10;99.90;;;;;;5087996;28;20286;-72
2024/03/10 06:07:49;;;;;;;24.50;17.53;;;6.10;99.90;;;;;;5087584;28;20195;-71
2024/03/10 06:10:16;;;;;;;23.93;17.93;;;6.10;99.90;;;;;;5087582;28;20288;-72
2024/03/10 06:12:43;;;;;;;24.40;18.43;;;6.20;99.90;;;;;;5087829;28;20581;-71
2024/03/10 06:15:11;;;;;;;21.37;17.10;;;6.20;99.90;;;;;;5087962;28;20609;-71
2024/03/10 06:17:40;;;;;;;24.77;17.50;;;6.20;99.90;;;;;;5087351;28;21031;-72
2024/03/10 06:25:38;;;;;;;25.10;17.67;;;6.20;99.90;;;;;;5087061;28;20260;-72
2024/03/10 06:28:06;;;;;;;23.43;17.80;;;6.20;99.90;;;;;;5087075;28;20293;-72
2024/03/10 06:30:33;;;;;;;24.73;18.00;;;6.20;99.90;;;;;;5087722;28;20286;-72
2024/03/10 06:33:00;;;;;;;24.87;17.27;;;6.30;99.90;;;;;;5086819;28;20234;-73
2024/03/10 06:35:26;;;;;;;23.00;17.20;;;6.40;99.90;;;;;;5086949;28;20715;-72
2024/03/10 06:37:56;;;;;;;24.73;18.00;;;6.40;99.90;;;;;;5087228;28;20367;-72
2024/03/10 06:40:23;;;;;;;22.03;16.47;;;6.50;99.90;;;;;;5086701;28;20203;-72
2024/03/10 06:42:50;;;;;;;22.67;16.97;;;6.50;99.90;;;;;;5087051;28;20376;-72
2024/03/10 06:45:17;;;;;;;22.57;17.07;;;6.50;99.90;;;;;;5087218;28;20226;-72
2024/03/10 06:47:44;;;;;;;23.33;16.93;;;6.60;99.90;;;;;;5086855;28;20203;-73
2024/03/10 06:50:11;;;;;;;23.37;16.67;;;6.60;99.90;;;;;;5086612;28;20206;-72
2024/03/10 06:52:38;;;;;;;25.20;17.97;;;6.60;99.90;;;;;;5086926;28;20271;-72
2024/03/10 06:55:08;;;;;;;24.07;17.80;;;6.70;99.90;;;;;;5086477;28;20217;-72
2024/03/10 06:57:38;;;;;;;24.50;17.60;;;6.70;99.90;;;;;;5087106;28;20210;-72
2024/03/10 07:00:09;;;;;;;23.90;17.40;;;6.70;99.90;;;;;;5086762;28;20210;-72
2024/03/10 07:02:39;;;;;;;24.50;17.13;;;6.80;99.90;;;;;;5087123;28;20250;-72
2024/03/10 07:05:06;;;;;;;21.50;16.30;;;6.80;99.90;;;;;;5082568;28;20903;-71
2024/03/10 07:07:33;;;;;;;24.53;16.90;;;6.90;99.90;;;;;;5082578;28;20307;-71
2024/03/10 07:10:00;;;;;;;23.77;17.20;;;6.90;99.90;;;;;;5086336;28;20298;-72
2024/03/10 07:12:30;;;;;;;22.17;17.13;;;7.00;99.90;;;;;;5086159;28;20222;-72
2024/03/10 07:14:57;;;;;;;23.10;18.07;;;7.00;99.90;;;;;;5086547;28;20199;-72
2024/03/10 07:17:24;;;;;;;22.30;17.07;;;7.10;99.90;;;;;;5087052;28;20575;-72
2024/03/10 07:19:51;;;;;;;21.83;16.60;;;7.10;99.90;;;;;;5086501;28;20199;-72
2024/03/10 07:22:18;;;;;;;24.07;17.03;;;7.20;99.90;;;;;;5086586;28;20286;-72
2024/03/10 07:24:45;;;;;;;21.50;16.93;;;7.20;99.90;;;;;;5086435;28;20211;-71
2024/03/10 07:27:12;;;;;;;22.17;16.27;;;7.30;99.90;;;;;;5086826;28;20202;-71
2024/03/10 07:29:41;;;;;;;22.73;16.83;;;7.30;99.90;;;;;;5086662;28;20206;-71
2024/03/10 07:32:08;;;;;;;21.03;16.60;;;7.40;99.90;;;;;;5086676;28;20234;-71
2024/03/10 07:34:35;;;;;;;21.20;16.10;;;7.40;99.90;;;;;;5086700;28;20210;-71
2024/03/10 07:37:02;;;;;;;21.17;16.87;;;7.50;99.90;;;;;;5086559;28;20202;-72
2024/03/10 07:39:29;;;;;;;23.50;17.23;;;7.60;99.90;;;;;;5086424;28;20830;-71
2024/03/10 07:41:56;;;;;;;20.33;16.27;;;7.60;99.90;;;;;;5086012;28;20199;-71
2024/03/10 07:44:23;;;;;;;23.87;17.37;;;7.70;99.90;;;;;;5086298;28;20199;-71
2024/03/10 07:46:52;;;;;;;24.17;17.10;;;7.70;99.90;;;;;;5089727;28;20736;-71
2024/03/10 07:49:19;;;;;;;22.63;16.53;;;7.80;99.90;;;;;;5090718;28;20209;-71
2024/03/10 07:51:46;;;;;;;19.23;16.20;;;7.90;99.90;;;;;;5090186;28;20227;-71
2024/03/10 07:54:13;;;;;;;22.17;16.50;;;7.90;99.90;;;;;;5089966;28;20234;-71
2024/03/10 07:56:39;;;;;;;21.70;16.77;;;8.00;99.90;;;;;;5089425;28;20207;-71
2024/03/10 07:59:07;;;;;;;19.40;16.23;;;8.00;99.90;;;;;;5089847;28;20563;-71
2024/03/10 08:01:34;;;;;;;22.13;16.80;;;8.10;99.90;;;;;;5087775;28;20275;-72
2024/03/10 08:04:02;;;;;;;21.87;16.63;;;8.20;99.90;;;;;;5089024;28;20355;-71
2024/03/10 08:06:29;;;;;;;21.40;15.87;;;8.30;99.90;;;;;;5088325;28;20207;-71
2024/03/10 08:08:56;;;;;;;19.40;15.73;;;8.40;99.90;;;;;;5089610;28;20198;-71
2024/03/10 08:11:23;;;;;;;19.97;15.73;;;8.40;99.90;;;;;;5089592;28;20199;-71
2024/03/10 08:13:49;;;;;;;20.67;16.20;;;8.50;99.90;;;;;;5089144;28;20231;-70
2024/03/10 08:16:16;;;;;;;20.73;16.07;;;8.50;99.90;;;;;;5089661;28;20203;-71
2024/03/10 08:18:43;;;;;;;20.90;15.17;;;8.60;99.90;;;;;;5089852;28;20209;-70
2024/03/10 08:21:12;;;;;;;20.53;15.63;;;8.70;99.90;;;;;;5090152;28;20207;-70
2024/03/10 08:23:40;;;;;;;20.43;16.07;;;8.80;99.90;;;;;;5089659;28;20294;-70
2024/03/10 08:26:09;;;;;;;24.33;16.90;;;8.80;99.90;;;;;;5088808;28;20569;-72
2024/03/10 08:28:36;;;;;;;20.90;15.87;;;8.90;99.90;;;;;;5090049;28;20202;-73
2024/03/10 08:31:04;;;;;;;20.73;15.27;;;9.10;99.90;;;;;;5089547;28;20198;-72
2024/03/10 08:33:31;;;;;;;19.70;15.73;;;9.20;99.90;;;;;;5089526;28;20226;-72
2024/03/10 08:35:57;;;;;;;21.40;16.57;;;9.30;99.90;;;;;;5089454;28;20230;-73
2024/03/10 08:38:26;;;;;;;23.90;16.13;;;9.40;99.90;;;;;;5089474;28;20217;-72
2024/03/10 08:40:54;;;;;;;21.00;16.73;;;9.50;99.90;;;;;;5085630;28;20213;-72
2024/03/10 08:43:21;;;;;;;21.30;16.00;;;9.60;99.90;;;;;;5089488;28;20215;-72
2024/03/10 08:45:48;;;;;;;19.70;15.43;;;9.60;99.90;;;;;;5086230;28;20198;-72
2024/03/10 08:48:16;;;;;;;20.17;16.57;;;9.70;99.90;;;;;;5087340;28;20202;-72
2024/03/10 08:50:44;;;;;;;19.80;15.40;;;9.70;99.90;;;;;;5086938;28;20298;-71
2024/03/10 08:53:11;;;;;;;18.70;15.63;;;9.90;99.90;;;;;;5087641;28;20245;-72
2024/03/10 08:55:40;;;;;;;22.07;16.10;;;10.00;99.90;;;;;;5086174;28;20616;-72
2024/03/10 08:58:07;;;;;;;19.10;15.50;;;10.00;99.90;;;;;;5086843;28;20211;-71
2024/03/10 09:00:34;;;;;;;20.97;16.20;;;10.10;99.90;;;;;;5087005;28;20322;-72
2024/03/10 09:03:01;;;;;;;19.10;15.87;;;10.10;99.90;;;;;;5086964;28;20202;-71
2024/03/10 09:05:30;;;;;;;17.60;14.93;;;10.10;99.90;;;;;;5086422;28;20202;-72
2024/03/10 09:07:57;;;;;;;19.27;15.17;;;10.10;99.90;;;;;;5086594;28;20202;-71
2024/03/10 09:10:25;;;;;;;20.17;16.50;;;10.00;99.90;;;;;;5086678;28;20199;-72
2024/03/10 09:12:53;;;;;;;19.40;14.90;;;10.00;99.90;;;;;;5085861;28;20244;-72
2024/03/10 09:15:23;;;;;;;18.10;15.07;;;10.00;99.90;;;;;;5086790;28;20282;-72
2024/03/10 09:17:52;;;;;;;18.07;14.83;;;10.00;99.90;;;;;;5086774;28;20225;-72
2024/03/10 09:20:20;;;;;;;18.60;15.90;;;10.00;99.90;;;;;;5085066;28;20198;-72
2024/03/10 09:22:47;;;;;;;20.03;15.10;;;10.10;99.90;;;;;;5085769;28;20199;-71
2024/03/10 09:25:21;;;;;;;18.23;15.47;;;10.00;99.90;;;;;;5084416;28;20202;-71
2024/03/10 09:27:48;;;;;;;18.50;15.53;;;10.10;99.90;;;;;;5084558;28;20198;-72
2024/03/10 09:30:18;;;;;;;20.13;16.33;;;10.20;99.90;;;;;;5086389;28;20221;-72
2024/03/10 09:32:50;;;;;;;22.30;15.60;;;10.30;99.90;;;;;;5085248;28;20230;-72
2024/03/10 09:35:23;;;;;;;19.80;14.80;;;10.40;99.90;;;;;;5086951;28;20199;-72
2024/03/10 09:37:50;;;;;;;18.43;15.57;;;10.40;99.90;;;;;;5080927;28;20210;-72
2024/03/10 09:40:21;;;;;;;19.73;15.83;;;10.60;99.90;;;;;;5085919;28;20219;-73
2024/03/10 09:42:48;;;;;;;17.77;14.80;;;10.70;99.90;;;;;;5080979;28;20221;-74
2024/03/10 09:45:21;;;;;;;17.67;15.17;;;10.80;99.90;;;;;;5078082;28;20305;-72
2024/03/10 09:47:49;;;;;;;18.47;15.67;;;10.90;99.90;;;;;;5085847;28;20224;-74
2024/03/10 09:50:22;;;;;;;20.90;15.53;;;11.00;99.90;;;;;;5086188;28;20259;-73
2024/03/10 09:52:53;;;;;;;20.03;16.47;;;11.10;99.90;;;;;;5085798;28;20223;-73
2024/03/10 09:55:21;;;;;;;18.33;15.40;;;11.20;99.90;;;;;;5085710;28;20191;-73
2024/03/10 09:57:53;;;;;;;22.23;15.70;;;11.20;99.90;;;;;;5085783;28;20502;-73
2024/03/10 10:00:23;;;;;;;19.10;15.73;;;11.20;99.90;;;;;;5085818;28;20841;-73
2024/03/10 10:02:55;;;;;;;19.90;15.70;;;11.30;99.90;;;;;;5085657;28;20244;-73
2024/03/10 10:05:29;;;;;;;18.80;16.30;;;11.40;99.90;;;;;;5085401;28;20796;-73
2024/03/10 10:07:56;;;;;;;18.70;15.67;;;11.50;99.90;;;;;;5085245;28;20630;-73
2024/03/10 10:10:22;;;;;;;18.63;15.93;;;11.60;99.90;;;;;;5085483;28;20297;-73
2024/03/10 10:12:50;;;;;;;18.00;15.87;;;11.60;99.90;;;;;;5084830;28;20242;-73
2024/03/10 10:15:21;;;;;;;20.67;15.90;;;11.60;99.90;;;;;;5085611;28;20192;-73
2024/03/10 10:17:56;;;;;;;19.20;15.97;;;11.60;99.90;;;;;;5085376;28;20203;-73
2024/03/10 10:20:25;;;;;;;18.17;15.60;;;11.60;99.90;;;;;;5085427;28;20569;-73
2024/03/10 10:30:13;;;;;;;20.43;15.73;;;11.50;99.90;;;;;;5085035;28;20174;-72
2024/03/10 10:32:41;;;;;;;18.33;15.47;;;11.50;99.90;;;;;;5085648;28;20317;-73
2024/03/10 10:35:10;;;;;;;18.37;15.67;;;11.50;99.90;;;;;;5083390;28;20653;-74
2024/03/10 10:37:36;;;;;;;20.10;17.07;;;11.50;99.90;;;;;;5078740;28;20289;-74
2024/03/10 10:40:11;;;;;;;19.63;16.60;;;11.50;99.90;;;;;;5085506;28;20229;-74
2024/03/10 10:42:38;;;;;;;18.77;15.73;;;11.60;99.90;;;;;;5085537;28;20213;-74
2024/03/10 10:45:08;;;;;;;17.27;15.47;;;11.70;99.90;;;;;;5086378;28;20235;-74
2024/03/10 10:47:36;;;;;;;18.60;15.87;;;11.80;99.90;;;;;;5086633;28;20243;-74
2024/03/10 10:50:10;;;;;;;19.17;16.00;;;11.90;99.90;;;;;;5086882;28;20252;-74
2024/03/10 10:52:41;;;;;;;15.97;14.20;;;12.10;99.90;;;;;;5086665;28;20228;-73
2024/03/10 10:55:10;;;;;;;17.57;15.13;;;12.20;99.90;;;;;;5083320;28;20290;-74
2024/03/10 10:57:44;;;;;;;17.97;14.67;;;12.20;99.90;;;;;;5082240;28;20571;-74
2024/03/10 11:00:26;;;;;;;17.40;14.60;;;12.20;99.90;;;;;;5081510;28;20246;-74
2024/03/10 11:03:06;;;;;;;18.90;14.73;;;12.20;99.90;;;;;;5080233;28;20206;-74
2024/03/10 11:05:33;;;;;;;21.30;16.60;;;12.30;99.90;;;;;;5080406;28;20209;-74
2024/03/10 11:08:04;;;;;;;20.03;16.20;;;12.30;99.90;;;;;;5081930;28;20211;-74
2024/03/10 11:10:45;;;;;;;24.07;17.03;;;12.30;99.90;;;;;;5081938;28;20195;-73
2024/03/10 11:13:17;;;;;;;22.07;16.30;;;12.30;99.90;;;;;;5082591;28;20602;-74
2024/03/10 11:15:45;;;;;;;20.23;17.27;;;12.20;99.90;;;;;;5082930;28;20685;-74
2024/03/10 11:18:25;;;;;;;19.67;16.87;;;12.30;99.90;;;;;;5082088;28;20211;-73
2024/03/10 11:20:53;;;;;;;18.90;16.90;;;12.30;99.90;;;;;;5084699;28;20206;-73
2024/03/10 11:23:26;;;;;;;18.63;16.33;;;12.30;99.90;;;;;;5087109;28;20276;-73
2024/03/10 11:25:53;;;;;;;19.73;16.57;;;12.30;99.90;;;;;;5086183;28;20195;-74
2024/03/10 11:28:25;;;;;;;20.67;16.90;;;12.50;99.90;;;;;;5086586;28;20741;-74
2024/03/10 11:30:56;;;;;;;20.20;15.47;;;12.50;99.90;;;;;;5083278;28;20211;-74
2024/03/10 11:33:24;;;;;;;20.83;16.70;;;12.60;99.90;;;;;;5075630;28;20740;-74
2024/03/10 11:35:52;;;;;;;18.83;15.83;;;12.60;99.90;;;;;;5065518;28;20763;-74
2024/03/10 11:38:22;;;;;;;17.67;15.77;;;12.80;99.90;;;;;;5066483;28;20215;-73
2024/03/10 11:41:07;;;;;;;19.83;15.90;;;12.90;99.90;;;;;;5076438;28;20213;-74
2024/03/10 11:43:35;;;;;;;19.90;15.90;;;13.00;99.90;;;;;;5085089;28;20195;-74
2024/03/10 11:46:03;;;;;;;17.47;15.27;;;12.90;99.90;;;;;;5082679;28;20206;-74
2024/03/10 11:48:31;;;;;;;17.13;15.33;;;12.90;99.90;;;;;;5085464;28;20202;-74
2024/03/10 11:50:59;;;;;;;20.43;16.27;;;12.90;99.90;;;;;;5080298;28;20297;-74
2024/03/10 11:53:26;;;;;;;22.27;16.70;;;12.80;99.90;;;;;;5085737;28;20284;-74
2024/03/10 11:55:57;;;;;;;19.57;16.03;;;12.80;99.90;;;;;;5085603;28;20650;-74
2024/03/10 11:58:27;;;;;;;17.63;15.17;;;12.80;99.90;;;;;;5090113;28;20203;-74
2024/03/10 12:00:54;;;;;;;19.83;16.30;;;12.80;99.90;;;;;;5089607;28;20321;-74
2024/03/10 12:03:21;;;;;;;20.23;15.77;;;12.80;99.90;;;;;;5090483;28;20213;-74
2024/03/10 12:05:48;;;;;;;20.30;16.73;;;12.80;99.90;;;;;;5090410;28;20203;-74
2024/03/10 12:08:16;;;;;;;19.57;16.60;;;12.80;99.90;;;;;;5089891;28;20230;-74
2024/03/10 12:10:43;;;;;;;19.23;16.07;;;12.90;99.90;;;;;;5076675;28;20230;-74
2024/03/10 12:13:18;;;;;;;19.60;16.17;;;13.00;99.90;;;;;;5077785;28;20316;-74
2024/03/10 12:15:52;;;;;;;17.83;15.93;;;13.10;99.90;;;;;;5083843;28;20195;-74
2024/03/10 12:18:21;;;;;;;16.43;14.70;;;13.10;99.90;;;;;;5088407;28;20653;-74
2024/03/10 12:23:50;;;;;;;16.20;14.60;;;13.00;99.90;;;;;;5088320;28;20214;-74
2024/03/10 12:26:18;;;;;;;17.97;14.20;;;13.00;99.90;;;;;;5082750;28;20273;-74
2024/03/10 12:28:47;;;;;;;21.80;14.40;;;13.00;99.90;;;;;;5071648;28;20252;-73
2024/03/10 12:31:16;;;;;;;14.50;12.73;;;13.10;99.90;;;;;;5087997;28;20203;-74
2024/03/10 12:33:44;;;;;;;17.27;14.53;;;13.20;99.90;;;;;;5088589;28;20314;-74
2024/03/10 12:36:12;;;;;;;15.80;14.10;;;13.20;99.90;;;;;;5087888;28;20230;-74
2024/03/10 12:38:41;;;;;;;16.80;14.23;;;13.30;99.90;;;;;;5088131;28;20580;-74
2024/03/10 12:41:08;;;;;;;15.77;13.50;;;13.30;99.90;;;;;;5088452;28;20261;-74
2024/03/10 12:43:36;;;;;;;15.30;13.33;;;13.30;99.90;;;;;;5088474;28;20234;-74
2024/03/10 12:46:04;;;;;;;17.93;14.03;;;13.40;99.90;;;;;;5087961;28;20222;-74
2024/03/10 12:48:32;;;;;;;16.93;13.57;;;13.30;99.90;;;;;;5088201;28;20199;-74
2024/03/10 12:50:59;;;;;;;15.37;13.17;;;13.20;99.90;;;;;;5088046;28;20297;-73
2024/03/10 12:53:26;;;;;;;14.67;13.10;;;13.10;99.90;;;;;;5088106;28;20333;-74
2024/03/10 12:55:53;;;;;;;14.17;12.67;;;13.10;99.90;;;;;;5087903;28;20314;-73
2024/03/10 12:58:21;;;;;;;14.63;12.87;;;13.00;99.90;;;;;;5088189;28;20293;-73
2024/03/10 13:00:48;;;;;;;15.10;13.03;;;13.00;99.90;;;;;;5087656;28;20659;-74
2024/03/10 13:03:15;;;;;;;15.63;13.00;;;13.00;99.90;;;;;;5087914;28;20317;-74
2024/03/10 13:05:43;;;;;;;17.97;13.47;;;13.00;99.90;;;;;;5087811;28;20295;-73
2024/03/10 13:08:12;;;;;;;14.50;13.00;;;13.00;99.90;;;;;;5087464;28;20740;-74
2024/03/10 13:10:39;;;;;;;22.17;14.93;;;12.90;99.90;;;;;;5087529;28;20280;-74